العين, الإمارات العربية المتحدة

12:51 PM GST on êèنêè 07, 2015 (GMT +0400)
Al Ain International | | Change Station
CLOSE
Current Station
Airport
Location: Al Ain,
Elevation: 869 ft
Nearby Weather Stations

Elev 869 ft 24.26 °N, 55.61 °E | Updated 51 minutes ago

Clear
صافية
100 °F
Feels Like 106 °F
N
12
ريح متغير ريح from SSW

هذا اليوم
High -- | Low -- °F
--% Chance of Precip.
Yesterday
High -- | Low -- °F
Precip. -- في
5:35 AM 7:09 PM
الأحدب الأخير, 67% visible
الضغط 29.50 في
وضوح الرؤية -9999.0 أميال
سحابات
مؤشر الحرارة 106 °F
نقطة الندى 68 °F
الرطوبة 35%
Rainfall 0.00 في
عمق الثلج Not available.
الأشعة فوق البنفسجية Not available.
Pollen Not available.
جودة الهواء Not available.
Flu Activity Not available.
METAR OMAL 070800Z 20010KT 160V250 CAVOK 38/20 Q0999 A2950 NOSIG

More Conditions Fewer Conditions

الضغط 29.50 في
وضوح الرؤية -9999.0 أميال
سحابات
مؤشر الحرارة 106 °F
نقطة الندى 68 °F
الرطوبة 35%
Rainfall 0.00 في
عمق الثلج Not available.
الأشعة فوق البنفسجية Not available.
Pollen Not available.
جودة الهواء Not available.
Flu Activity Not available.
METAR OMAL 070800Z 20010KT 160V250 CAVOK 38/20 Q0999 A2950 NOSIG

More Conditions Fewer Conditions

10-Day Weather Forecast

×

Almanac

علم الفلك

Jul. 07, 2015 Rise Set
Actual Time
Civil Twilight
Nautical Twilight
Astronomical Twilight
قمر
Length Of Visible Light
طول الیوم
Tomorrow will be .
, % of the Moon is Illuminated

Today's Extremes

Country Highs Country Lows

Community

WunderPhotos

Upload Photos

1,835,758 photos uploaded!

WunderBlogs® & News

Nearby

جودة الهواء

  جودة الهواء AQ Index Pollutant
Not available.

عمق الثلج

Station Depth Elevation

Earthquake Activity

City Distance Mag. Time & Date
Minimum magnitude displayed is 2.5.

Coastal Water Temperatures

مكان درجات الحرارة

Stations

Nearby Weather Stations

Station Location الحرارة رياح باردة نقطة الندى الرطوبة ريح Precip. Elev تحديث Type